sensor_id;sensor_type;location;lat;lon;timestamp;temperature;humidity
32534;DHT22;18973;48.580;8.912;2024-02-21T00:02:18;6.00;99.90
32534;DHT22;18973;48.580;8.912;2024-02-21T00:04:44;5.90;99.90
32534;DHT22;18973;48.580;8.912;2024-02-21T00:07:09;5.70;99.90
32534;DHT22;18973;48.580;8.912;2024-02-21T00:09:35;5.70;99.90
32534;DHT22;18973;48.580;8.912;2024-02-21T00:12:01;5.60;99.90
32534;DHT22;18973;48.580;8.912;2024-02-21T00:14:27;5.50;99.90
32534;DHT22;18973;48.580;8.912;2024-02-21T00:16:55;5.60;99.90
32534;DHT22;18973;48.580;8.912;2024-02-21T00:19:20;5.60;99.90
32534;DHT22;18973;48.580;8.912;2024-02-21T00:21:46;5.70;99.90
32534;DHT22;18973;48.580;8.912;2024-02-21T00:24:12;5.70;99.90
32534;DHT22;18973;48.580;8.912;2024-02-21T00:26:37;5.80;99.90
32534;DHT22;18973;48.580;8.912;2024-02-21T00:29:03;5.80;99.90
32534;DHT22;18973;48.580;8.912;2024-02-21T00:31:29;5.80;99.90
32534;DHT22;18973;48.580;8.912;2024-02-21T00:33:55;5.90;99.90
32534;DHT22;18973;48.580;8.912;2024-02-21T00:36:20;5.90;99.90
32534;DHT22;18973;48.580;8.912;2024-02-21T00:38:46;5.90;99.90
32534;DHT22;18973;48.580;8.912;2024-02-21T00:41:12;6.00;99.90
32534;DHT22;18973;48.580;8.912;2024-02-21T00:43:37;5.90;99.90
32534;DHT22;18973;48.580;8.912;2024-02-21T00:46:05;5.90;99.90
32534;DHT22;18973;48.580;8.912;2024-02-21T00:48:31;5.90;99.90
32534;DHT22;18973;48.580;8.912;2024-02-21T00:50:57;6.00;99.90
32534;DHT22;18973;48.580;8.912;2024-02-21T00:53:23;5.90;99.90
32534;DHT22;18973;48.580;8.912;2024-02-21T00:55:49;5.90;99.90
32534;DHT22;18973;48.580;8.912;2024-02-21T00:58:14;5.80;99.90
32534;DHT22;18973;48.580;8.912;2024-02-21T01:00:40;5.90;99.90
32534;DHT22;18973;48.580;8.912;2024-02-21T01:03:06;5.60;99.90
32534;DHT22;18973;48.580;8.912;2024-02-21T01:05:31;5.70;99.90
32534;DHT22;18973;48.580;8.912;2024-02-21T01:07:57;5.70;99.90
32534;DHT22;18973;48.580;8.912;2024-02-21T01:10:23;5.70;99.90
32534;DHT22;18973;48.580;8.912;2024-02-21T01:12:48;5.70;99.90
32534;DHT22;18973;48.580;8.912;2024-02-21T01:15:14;5.70;99.90
32534;DHT22;18973;48.580;8.912;2024-02-21T01:17:40;5.60;99.90
32534;DHT22;18973;48.580;8.912;2024-02-21T01:20:08;5.70;99.90
32534;DHT22;18973;48.580;8.912;2024-02-21T01:22:34;5.70;99.90
32534;DHT22;18973;48.580;8.912;2024-02-21T01:25:00;5.80;99.90
32534;DHT22;18973;48.580;8.912;2024-02-21T01:27:25;5.80;99.90
32534;DHT22;18973;48.580;8.912;2024-02-21T01:29:51;5.90;99.90
32534;DHT22;18973;48.580;8.912;2024-02-21T01:32:17;5.80;99.90
32534;DHT22;18973;48.580;8.912;2024-02-21T01:34:42;5.90;99.90
32534;DHT22;18973;48.580;8.912;2024-02-21T01:37:08;5.80;99.90
32534;DHT22;18973;48.580;8.912;2024-02-21T01:39:34;5.70;99.90
32534;DHT22;18973;48.580;8.912;2024-02-21T01:42:00;5.70;99.90
32534;DHT22;18973;48.580;8.912;2024-02-21T01:44:26;5.70;99.90
32534;DHT22;18973;48.580;8.912;2024-02-21T01:46:52;5.80;99.90
32534;DHT22;18973;48.580;8.912;2024-02-21T01:49:21;5.80;99.90
32534;DHT22;18973;48.580;8.912;2024-02-21T01:51:47;5.90;99.90
32534;DHT22;18973;48.580;8.912;2024-02-21T01:54:14;5.90;99.90
32534;DHT22;18973;48.580;8.912;2024-02-21T01:56:42;5.80;99.90
32534;DHT22;18973;48.580;8.912;2024-02-21T01:59:08;5.80;99.90
32534;DHT22;18973;48.580;8.912;2024-02-21T02:01:34;5.80;99.90
32534;DHT22;18973;48.580;8.912;2024-02-21T02:03:59;5.80;99.90
32534;DHT22;18973;48.580;8.912;2024-02-21T02:06:26;5.90;99.90
32534;DHT22;18973;48.580;8.912;2024-02-21T02:08:52;6.00;99.90
32534;DHT22;18973;48.580;8.912;2024-02-21T02:11:18;6.00;99.90
32534;DHT22;18973;48.580;8.912;2024-02-21T02:13:44;5.90;99.90
32534;DHT22;18973;48.580;8.912;2024-02-21T02:16:10;5.80;99.90
32534;DHT22;18973;48.580;8.912;2024-02-21T02:18:35;5.60;99.90
32534;DHT22;18973;48.580;8.912;2024-02-21T02:21:01;5.50;99.90
32534;DHT22;18973;48.580;8.912;2024-02-21T02:23:31;5.50;99.90
32534;DHT22;18973;48.580;8.912;2024-02-21T02:25:57;5.50;99.90
32534;DHT22;18973;48.580;8.912;2024-02-21T02:28:24;5.40;99.90
32534;DHT22;18973;48.580;8.912;2024-02-21T02:30:50;5.40;99.90
32534;DHT22;18973;48.580;8.912;2024-02-21T02:33:16;5.40;99.90
32534;DHT22;18973;48.580;8.912;2024-02-21T02:35:45;5.60;99.90
32534;DHT22;18973;48.580;8.912;2024-02-21T02:38:11;5.60;99.90
32534;DHT22;18973;48.580;8.912;2024-02-21T02:40:38;5.70;99.90
32534;DHT22;18973;48.580;8.912;2024-02-21T02:43:04;5.70;99.90
32534;DHT22;18973;48.580;8.912;2024-02-21T02:45:30;5.80;99.90
32534;DHT22;18973;48.580;8.912;2024-02-21T02:47:57;5.70;99.90
32534;DHT22;18973;48.580;8.912;2024-02-21T02:50:27;5.80;99.90
32534;DHT22;18973;48.580;8.912;2024-02-21T02:52:55;5.80;99.90
32534;DHT22;18973;48.580;8.912;2024-02-21T02:55:21;5.80;99.90
32534;DHT22;18973;48.580;8.912;2024-02-21T02:57:47;5.80;99.90
32534;DHT22;18973;48.580;8.912;2024-02-21T03:00:14;5.70;99.90
32534;DHT22;18973;48.580;8.912;2024-02-21T03:02:41;5.80;99.90
32534;DHT22;18973;48.580;8.912;2024-02-21T03:05:15;5.90;99.90
32534;DHT22;18973;48.580;8.912;2024-02-21T03:07:41;5.80;99.90
32534;DHT22;18973;48.580;8.912;2024-02-21T03:10:08;5.70;99.90
32534;DHT22;18973;48.580;8.912;2024-02-21T03:12:34;5.70;99.90
32534;DHT22;18973;48.580;8.912;2024-02-21T03:14:59;5.80;99.90
32534;DHT22;18973;48.580;8.912;2024-02-21T03:17:25;5.80;99.90
32534;DHT22;18973;48.580;8.912;2024-02-21T03:19:52;5.60;99.90
32534;DHT22;18973;48.580;8.912;2024-02-21T03:22:18;5.50;99.90
32534;DHT22;18973;48.580;8.912;2024-02-21T03:24:44;5.60;99.90
32534;DHT22;18973;48.580;8.912;2024-02-21T03:27:10;5.60;99.90
32534;DHT22;18973;48.580;8.912;2024-02-21T03:29:35;5.50;99.90
32534;DHT22;18973;48.580;8.912;2024-02-21T03:32:01;5.50;99.90
32534;DHT22;18973;48.580;8.912;2024-02-21T03:34:27;5.50;99.90
32534;DHT22;18973;48.580;8.912;2024-02-21T03:36:53;5.40;99.90
32534;DHT22;18973;48.580;8.912;2024-02-21T03:39:18;5.40;99.90
32534;DHT22;18973;48.580;8.912;2024-02-21T03:41:44;5.50;99.90
32534;DHT22;18973;48.580;8.912;2024-02-21T03:44:10;5.40;99.90
32534;DHT22;18973;48.580;8.912;2024-02-21T03:46:35;5.40;99.90
32534;DHT22;18973;48.580;8.912;2024-02-21T03:49:01;5.40;99.90
32534;DHT22;18973;48.580;8.912;2024-02-21T03:51:26;5.40;99.90
32534;DHT22;18973;48.580;8.912;2024-02-21T03:53:52;5.40;99.90
32534;DHT22;18973;48.580;8.912;2024-02-21T03:56:18;5.30;99.90
32534;DHT22;18973;48.580;8.912;2024-02-21T03:58:43;5.30;99.90
32534;DHT22;18973;48.580;8.912;2024-02-21T04:01:09;5.40;99.90
32534;DHT22;18973;48.580;8.912;2024-02-21T04:03:35;5.30;99.90
32534;DHT22;18973;48.580;8.912;2024-02-21T04:06:00;5.30;99.90
32534;DHT22;18973;48.580;8.912;2024-02-21T04:08:26;5.50;99.90
32534;DHT22;18973;48.580;8.912;2024-02-21T04:10:52;5.60;99.90
32534;DHT22;18973;48.580;8.912;2024-02-21T04:13:17;5.60;99.90
32534;DHT22;18973;48.580;8.912;2024-02-21T04:15:43;5.50;99.90
32534;DHT22;18973;48.580;8.912;2024-02-21T04:18:09;5.50;99.90
32534;DHT22;18973;48.580;8.912;2024-02-21T04:20:35;5.50;99.90
32534;DHT22;18973;48.580;8.912;2024-02-21T04:23:01;5.70;99.90
32534;DHT22;18973;48.580;8.912;2024-02-21T04:25:26;5.80;99.90
32534;DHT22;18973;48.580;8.912;2024-02-21T04:27:52;5.70;99.90
32534;DHT22;18973;48.580;8.912;2024-02-21T04:30:18;5.70;99.90
32534;DHT22;18973;48.580;8.912;2024-02-21T04:32:43;5.70;99.90
32534;DHT22;18973;48.580;8.912;2024-02-21T04:35:09;5.50;99.90
32534;DHT22;18973;48.580;8.912;2024-02-21T04:37:35;5.50;99.90
32534;DHT22;18973;48.580;8.912;2024-02-21T04:40:01;5.60;99.90
32534;DHT22;18973;48.580;8.912;2024-02-21T04:42:26;5.60;99.90
32534;DHT22;18973;48.580;8.912;2024-02-21T04:44:52;5.40;99.90
32534;DHT22;18973;48.580;8.912;2024-02-21T04:47:18;5.50;99.90
32534;DHT22;18973;48.580;8.912;2024-02-21T04:49:45;5.30;99.90
32534;DHT22;18973;48.580;8.912;2024-02-21T04:52:11;5.20;99.90
32534;DHT22;18973;48.580;8.912;2024-02-21T04:54:37;5.20;99.90
32534;DHT22;18973;48.580;8.912;2024-02-21T04:57:03;5.10;99.90
32534;DHT22;18973;48.580;8.912;2024-02-21T04:59:29;5.10;99.90
32534;DHT22;18973;48.580;8.912;2024-02-21T05:01:55;5.10;99.90
32534;DHT22;18973;48.580;8.912;2024-02-21T05:04:20;5.10;99.90
32534;DHT22;18973;48.580;8.912;2024-02-21T05:06:46;5.10;99.90
32534;DHT22;18973;48.580;8.912;2024-02-21T05:09:12;5.10;99.90
32534;DHT22;18973;48.580;8.912;2024-02-21T05:11:38;5.10;99.90
32534;DHT22;18973;48.580;8.912;2024-02-21T05:14:04;5.00;99.90
32534;DHT22;18973;48.580;8.912;2024-02-21T05:16:30;5.10;99.90
32534;DHT22;18973;48.580;8.912;2024-02-21T05:18:56;5.00;99.90
32534;DHT22;18973;48.580;8.912;2024-02-21T05:21:25;5.00;99.90
32534;DHT22;18973;48.580;8.912;2024-02-21T05:23:51;4.90;99.90
32534;DHT22;18973;48.580;8.912;2024-02-21T05:26:24;5.10;99.90
32534;DHT22;18973;48.580;8.912;2024-02-21T05:28:50;5.00;99.90
32534;DHT22;18973;48.580;8.912;2024-02-21T05:31:17;5.00;99.90
32534;DHT22;18973;48.580;8.912;2024-02-21T05:33:44;5.10;99.90
32534;DHT22;18973;48.580;8.912;2024-02-21T05:36:10;5.10;99.90
32534;DHT22;18973;48.580;8.912;2024-02-21T05:38:36;5.10;99.90
32534;DHT22;18973;48.580;8.912;2024-02-21T05:41:02;5.10;99.90
32534;DHT22;18973;48.580;8.912;2024-02-21T05:43:28;5.20;99.90
32534;DHT22;18973;48.580;8.912;2024-02-21T05:45:54;5.20;99.90
32534;DHT22;18973;48.580;8.912;2024-02-21T05:48:20;5.10;99.90
32534;DHT22;18973;48.580;8.912;2024-02-21T05:50:46;5.10;99.90
32534;DHT22;18973;48.580;8.912;2024-02-21T05:53:11;5.00;99.90
32534;DHT22;18973;48.580;8.912;2024-02-21T05:55:38;5.00;99.90
32534;DHT22;18973;48.580;8.912;2024-02-21T05:58:04;5.00;99.90
32534;DHT22;18973;48.580;8.912;2024-02-21T06:00:31;5.00;99.90
32534;DHT22;18973;48.580;8.912;2024-02-21T06:02:57;5.00;99.90
32534;DHT22;18973;48.580;8.912;2024-02-21T06:05:23;4.90;99.90
32534;DHT22;18973;48.580;8.912;2024-02-21T06:07:49;4.90;99.90
32534;DHT22;18973;48.580;8.912;2024-02-21T06:10:14;5.10;99.90
32534;DHT22;18973;48.580;8.912;2024-02-21T06:12:40;5.00;99.90
32534;DHT22;18973;48.580;8.912;2024-02-21T06:15:06;4.90;99.90
32534;DHT22;18973;48.580;8.912;2024-02-21T06:17:32;4.90;99.90
32534;DHT22;18973;48.580;8.912;2024-02-21T06:19:57;4.80;99.90
32534;DHT22;18973;48.580;8.912;2024-02-21T06:22:23;4.80;99.90
32534;DHT22;18973;48.580;8.912;2024-02-21T06:24:49;4.80;99.90
32534;DHT22;18973;48.580;8.912;2024-02-21T06:27:15;4.70;99.90
32534;DHT22;18973;48.580;8.912;2024-02-21T06:29:42;4.80;99.90
32534;DHT22;18973;48.580;8.912;2024-02-21T06:32:07;4.90;99.90
32534;DHT22;18973;48.580;8.912;2024-02-21T06:34:33;4.80;99.90
32534;DHT22;18973;48.580;8.912;2024-02-21T06:36:59;4.80;99.90
32534;DHT22;18973;48.580;8.912;2024-02-21T06:39:24;4.80;99.90
32534;DHT22;18973;48.580;8.912;2024-02-21T06:41:50;4.80;99.90
32534;DHT22;18973;48.580;8.912;2024-02-21T06:44:17;4.70;99.90
32534;DHT22;18973;48.580;8.912;2024-02-21T06:46:43;4.80;99.90
32534;DHT22;18973;48.580;8.912;2024-02-21T06:49:08;4.80;99.90
32534;DHT22;18973;48.580;8.912;2024-02-21T06:51:34;4.80;99.90
32534;DHT22;18973;48.580;8.912;2024-02-21T06:54:00;4.90;99.90
32534;DHT22;18973;48.580;8.912;2024-02-21T06:56:26;4.90;99.90
32534;DHT22;18973;48.580;8.912;2024-02-21T06:58:55;4.90;99.90
32534;DHT22;18973;48.580;8.912;2024-02-21T07:01:21;5.00;99.90
32534;DHT22;18973;48.580;8.912;2024-02-21T07:03:47;5.10;99.90
32534;DHT22;18973;48.580;8.912;2024-02-21T07:06:13;5.10;99.90
32534;DHT22;18973;48.580;8.912;2024-02-21T07:08:38;5.20;99.90
32534;DHT22;18973;48.580;8.912;2024-02-21T07:11:05;5.30;99.90
32534;DHT22;18973;48.580;8.912;2024-02-21T07:13:31;5.30;99.90
32534;DHT22;18973;48.580;8.912;2024-02-21T07:15:57;5.40;99.90
32534;DHT22;18973;48.580;8.912;2024-02-21T07:18:23;5.40;99.90
32534;DHT22;18973;48.580;8.912;2024-02-21T07:20:51;5.50;99.90
32534;DHT22;18973;48.580;8.912;2024-02-21T07:23:17;5.60;99.90
32534;DHT22;18973;48.580;8.912;2024-02-21T07:25:42;5.60;99.90
32534;DHT22;18973;48.580;8.912;2024-02-21T07:28:08;5.60;99.90
32534;DHT22;18973;48.580;8.912;2024-02-21T07:30:34;5.60;99.90
32534;DHT22;18973;48.580;8.912;2024-02-21T07:32:59;5.70;99.90
32534;DHT22;18973;48.580;8.912;2024-02-21T07:35:25;5.60;99.90
32534;DHT22;18973;48.580;8.912;2024-02-21T07:37:51;5.60;99.90
32534;DHT22;18973;48.580;8.912;2024-02-21T07:40:17;5.80;99.90
32534;DHT22;18973;48.580;8.912;2024-02-21T07:42:43;5.70;99.90
32534;DHT22;18973;48.580;8.912;2024-02-21T07:45:09;5.80;99.90
32534;DHT22;18973;48.580;8.912;2024-02-21T07:47:36;5.90;99.90
32534;DHT22;18973;48.580;8.912;2024-02-21T07:50:02;6.00;99.90
32534;DHT22;18973;48.580;8.912;2024-02-21T07:52:28;6.20;99.90
32534;DHT22;18973;48.580;8.912;2024-02-21T07:54:54;6.30;99.90
32534;DHT22;18973;48.580;8.912;2024-02-21T07:57:20;6.40;99.90
32534;DHT22;18973;48.580;8.912;2024-02-21T07:59:45;6.60;99.90
32534;DHT22;18973;48.580;8.912;2024-02-21T08:02:16;6.70;99.90
32534;DHT22;18973;48.580;8.912;2024-02-21T08:04:42;6.60;99.90
32534;DHT22;18973;48.580;8.912;2024-02-21T08:07:08;6.70;99.90
32534;DHT22;18973;48.580;8.912;2024-02-21T08:09:34;6.90;99.90
32534;DHT22;18973;48.580;8.912;2024-02-21T08:12:00;7.00;99.90
32534;DHT22;18973;48.580;8.912;2024-02-21T08:14:26;7.20;99.90
32534;DHT22;18973;48.580;8.912;2024-02-21T08:16:52;7.40;99.90
32534;DHT22;18973;48.580;8.912;2024-02-21T08:19:21;7.50;99.90
32534;DHT22;18973;48.580;8.912;2024-02-21T08:21:48;7.50;99.90
32534;DHT22;18973;48.580;8.912;2024-02-21T08:24:17;7.60;99.90
32534;DHT22;18973;48.580;8.912;2024-02-21T08:26:43;7.80;99.90
32534;DHT22;18973;48.580;8.912;2024-02-21T08:29:11;7.90;99.90
32534;DHT22;18973;48.580;8.912;2024-02-21T08:31:37;7.80;99.90
32534;DHT22;18973;48.580;8.912;2024-02-21T08:34:03;7.80;99.90
32534;DHT22;18973;48.580;8.912;2024-02-21T08:36:33;7.90;99.90
32534;DHT22;18973;48.580;8.912;2024-02-21T08:38:59;7.80;99.90
32534;DHT22;18973;48.580;8.912;2024-02-21T08:41:25;7.70;99.90
32534;DHT22;18973;48.580;8.912;2024-02-21T08:43:52;7.70;99.90
32534;DHT22;18973;48.580;8.912;2024-02-21T08:46:19;7.80;99.90
32534;DHT22;18973;48.580;8.912;2024-02-21T08:48:46;7.70;99.90
32534;DHT22;18973;48.580;8.912;2024-02-21T08:51:13;7.80;99.90
32534;DHT22;18973;48.580;8.912;2024-02-21T08:53:39;7.70;99.90
32534;DHT22;18973;48.580;8.912;2024-02-21T08:56:05;7.80;99.90
32534;DHT22;18973;48.580;8.912;2024-02-21T08:58:31;7.70;99.90
32534;DHT22;18973;48.580;8.912;2024-02-21T09:00:57;7.70;99.90
32534;DHT22;18973;48.580;8.912;2024-02-21T09:03:22;7.70;99.90
32534;DHT22;18973;48.580;8.912;2024-02-21T09:05:49;7.80;99.90
32534;DHT22;18973;48.580;8.912;2024-02-21T09:08:14;7.90;99.90
32534;DHT22;18973;48.580;8.912;2024-02-21T09:10:40;7.90;99.90
32534;DHT22;18973;48.580;8.912;2024-02-21T09:13:06;8.00;99.90
32534;DHT22;18973;48.580;8.912;2024-02-21T09:15:34;8.00;99.90
32534;DHT22;18973;48.580;8.912;2024-02-21T09:17:59;8.10;99.90
32534;DHT22;18973;48.580;8.912;2024-02-21T09:20:25;8.10;99.90
32534;DHT22;18973;48.580;8.912;2024-02-21T09:22:51;8.10;99.90
32534;DHT22;18973;48.580;8.912;2024-02-21T09:25:18;8.20;99.90
32534;DHT22;18973;48.580;8.912;2024-02-21T09:27:45;8.20;99.90
32534;DHT22;18973;48.580;8.912;2024-02-21T09:30:11;8.30;99.90
32534;DHT22;18973;48.580;8.912;2024-02-21T09:32:37;8.40;99.90
32534;DHT22;18973;48.580;8.912;2024-02-21T09:35:04;8.60;99.90
32534;DHT22;18973;48.580;8.912;2024-02-21T09:37:31;8.80;99.90
32534;DHT22;18973;48.580;8.912;2024-02-21T09:39:57;9.00;99.90
32534;DHT22;18973;48.580;8.912;2024-02-21T09:42:38;9.10;99.90
32534;DHT22;18973;48.580;8.912;2024-02-21T09:45:15;9.30;99.90
32534;DHT22;18973;48.580;8.912;2024-02-21T09:48:19;9.40;99.90
32534;DHT22;18973;48.580;8.912;2024-02-21T09:50:50;9.50;99.90
32534;DHT22;18973;48.580;8.912;2024-02-21T09:53:16;9.50;99.90
32534;DHT22;18973;48.580;8.912;2024-02-21T09:55:43;9.70;99.90
32534;DHT22;18973;48.580;8.912;2024-02-21T09:58:09;9.80;99.90
32534;DHT22;18973;48.580;8.912;2024-02-21T10:00:36;9.90;99.90
32534;DHT22;18973;48.580;8.912;2024-02-21T10:03:03;10.00;99.90
32534;DHT22;18973;48.580;8.912;2024-02-21T10:05:35;10.30;99.90
32534;DHT22;18973;48.580;8.912;2024-02-21T10:08:01;10.30;99.90
32534;DHT22;18973;48.580;8.912;2024-02-21T10:10:27;10.30;99.90
32534;DHT22;18973;48.580;8.912;2024-02-21T10:12:53;10.30;99.90
32534;DHT22;18973;48.580;8.912;2024-02-21T10:15:24;10.40;99.90
32534;DHT22;18973;48.580;8.912;2024-02-21T10:18:01;10.50;99.90
32534;DHT22;18973;48.580;8.912;2024-02-21T10:20:27;10.70;99.90
32534;DHT22;18973;48.580;8.912;2024-02-21T10:23:03;10.80;99.90
32534;DHT22;18973;48.580;8.912;2024-02-21T10:25:34;10.80;99.90
32534;DHT22;18973;48.580;8.912;2024-02-21T10:28:01;10.70;99.90
32534;DHT22;18973;48.580;8.912;2024-02-21T10:30:27;10.70;99.90
32534;DHT22;18973;48.580;8.912;2024-02-21T10:32:53;10.80;99.90
32534;DHT22;18973;48.580;8.912;2024-02-21T10:35:30;11.00;99.90
32534;DHT22;18973;48.580;8.912;2024-02-21T10:37:56;11.10;99.90
32534;DHT22;18973;48.580;8.912;2024-02-21T10:40:24;11.10;99.90
32534;DHT22;18973;48.580;8.912;2024-02-21T10:42:57;11.10;99.80
32534;DHT22;18973;48.580;8.912;2024-02-21T10:45:29;11.10;99.90
32534;DHT22;18973;48.580;8.912;2024-02-21T10:50:29;11.10;99.90
32534;DHT22;18973;48.580;8.912;2024-02-21T10:53:14;11.10;99.90
32534;DHT22;18973;48.580;8.912;2024-02-21T10:55:50;11.20;99.90
32534;DHT22;18973;48.580;8.912;2024-02-21T10:58:16;11.20;99.90
32534;DHT22;18973;48.580;8.912;2024-02-21T11:00:43;11.20;99.90
32534;DHT22;18973;48.580;8.912;2024-02-21T11:03:09;11.30;99.90
32534;DHT22;18973;48.580;8.912;2024-02-21T11:05:36;11.60;99.90
32534;DHT22;18973;48.580;8.912;2024-02-21T11:08:03;11.60;99.90
32534;DHT22;18973;48.580;8.912;2024-02-21T11:10:31;11.50;99.90
32534;DHT22;18973;48.580;8.912;2024-02-21T11:13:07;11.60;99.90
32534;DHT22;18973;48.580;8.912;2024-02-21T11:15:33;11.60;99.90
32534;DHT22;18973;48.580;8.912;2024-02-21T11:17:59;11.60;99.90
32534;DHT22;18973;48.580;8.912;2024-02-21T11:20:38;11.50;99.90
32534;DHT22;18973;48.580;8.912;2024-02-21T11:23:04;11.40;99.90
32534;DHT22;18973;48.580;8.912;2024-02-21T11:25:30;11.40;99.80
32534;DHT22;18973;48.580;8.912;2024-02-21T11:28:03;11.30;99.90
32534;DHT22;18973;48.580;8.912;2024-02-21T11:30:35;11.30;99.90
32534;DHT22;18973;48.580;8.912;2024-02-21T11:33:01;11.30;99.90
32534;DHT22;18973;48.580;8.912;2024-02-21T11:35:34;11.30;99.90
32534;DHT22;18973;48.580;8.912;2024-02-21T11:38:11;11.30;99.90
32534;DHT22;18973;48.580;8.912;2024-02-21T11:40:40;11.50;99.60
32534;DHT22;18973;48.580;8.912;2024-02-21T11:43:07;11.60;99.50
32534;DHT22;18973;48.580;8.912;2024-02-21T11:45:33;11.60;99.60
32534;DHT22;18973;48.580;8.912;2024-02-21T11:47:59;11.50;99.00
32534;DHT22;18973;48.580;8.912;2024-02-21T11:50:26;11.50;99.90
32534;DHT22;18973;48.580;8.912;2024-02-21T11:52:54;11.70;99.30
32534;DHT22;18973;48.580;8.912;2024-02-21T11:55:21;11.70;99.40
32534;DHT22;18973;48.580;8.912;2024-02-21T11:57:50;11.70;99.90
32534;DHT22;18973;48.580;8.912;2024-02-21T12:00:17;11.80;99.70
32534;DHT22;18973;48.580;8.912;2024-02-21T12:02:44;12.00;99.90
32534;DHT22;18973;48.580;8.912;2024-02-21T12:05:10;13.00;99.90
32534;DHT22;18973;48.580;8.912;2024-02-21T12:07:37;13.40;99.90
32534;DHT22;18973;48.580;8.912;2024-02-21T12:10:12;13.70;99.90
32534;DHT22;18973;48.580;8.912;2024-02-21T12:12:39;13.80;97.30
32534;DHT22;18973;48.580;8.912;2024-02-21T12:15:05;13.40;97.90
32534;DHT22;18973;48.580;8.912;2024-02-21T12:17:35;13.20;97.40
32534;DHT22;18973;48.580;8.912;2024-02-21T12:20:02;13.00;97.10
32534;DHT22;18973;48.580;8.912;2024-02-21T12:22:35;12.70;97.60
32534;DHT22;18973;48.580;8.912;2024-02-21T12:25:15;12.60;98.70
32534;DHT22;18973;48.580;8.912;2024-02-21T12:27:41;12.60;98.30
32534;DHT22;18973;48.580;8.912;2024-02-21T12:30:07;12.60;97.10
32534;DHT22;18973;48.580;8.912;2024-02-21T12:32:35;12.50;97.30
32534;DHT22;18973;48.580;8.912;2024-02-21T12:35:01;12.40;97.20
32534;DHT22;18973;48.580;8.912;2024-02-21T12:37:28;12.40;97.70
32534;DHT22;18973;48.580;8.912;2024-02-21T12:39:53;12.40;96.80
32534;DHT22;18973;48.580;8.912;2024-02-21T12:42:19;12.40;97.10
32534;DHT22;18973;48.580;8.912;2024-02-21T12:44:45;12.30;97.10
32534;DHT22;18973;48.580;8.912;2024-02-21T12:47:11;12.30;96.90
32534;DHT22;18973;48.580;8.912;2024-02-21T12:49:37;12.20;96.90
32534;DHT22;18973;48.580;8.912;2024-02-21T12:52:03;12.20;96.50
32534;DHT22;18973;48.580;8.912;2024-02-21T12:54:29;12.10;97.50
32534;DHT22;18973;48.580;8.912;2024-02-21T12:56:56;12.20;96.80
32534;DHT22;18973;48.580;8.912;2024-02-21T12:59:22;12.20;97.10
32534;DHT22;18973;48.580;8.912;2024-02-21T13:01:48;12.20;97.10
32534;DHT22;18973;48.580;8.912;2024-02-21T13:04:14;12.30;97.30
32534;DHT22;18973;48.580;8.912;2024-02-21T13:06:39;12.30;96.80
32534;DHT22;18973;48.580;8.912;2024-02-21T13:09:05;12.30;96.50
32534;DHT22;18973;48.580;8.912;2024-02-21T13:11:34;12.30;96.00
32534;DHT22;18973;48.580;8.912;2024-02-21T13:14:00;12.40;96.40
32534;DHT22;18973;48.580;8.912;2024-02-21T13:16:26;12.40;95.60
32534;DHT22;18973;48.580;8.912;2024-02-21T13:18:54;12.30;96.20
32534;DHT22;18973;48.580;8.912;2024-02-21T13:21:19;12.40;96.30
32534;DHT22;18973;48.580;8.912;2024-02-21T13:23:45;12.40;95.80
32534;DHT22;18973;48.580;8.912;2024-02-21T13:26:11;12.50;96.00
32534;DHT22;18973;48.580;8.912;2024-02-21T13:28:38;12.50;96.50
32534;DHT22;18973;48.580;8.912;2024-02-21T13:31:04;12.50;95.60
32534;DHT22;18973;48.580;8.912;2024-02-21T13:33:29;12.50;95.80
32534;DHT22;18973;48.580;8.912;2024-02-21T13:35:55;12.60;97.60
32534;DHT22;18973;48.580;8.912;2024-02-21T13:38:21;12.60;97.80
32534;DHT22;18973;48.580;8.912;2024-02-21T13:40:47;12.60;98.90
32534;DHT22;18973;48.580;8.912;2024-02-21T13:43:12;12.60;98.00
32534;DHT22;18973;48.580;8.912;2024-02-21T13:45:38;12.70;98.20
32534;DHT22;18973;48.580;8.912;2024-02-21T13:48:07;12.70;98.70
32534;DHT22;18973;48.580;8.912;2024-02-21T13:50:36;12.70;99.10
32534;DHT22;18973;48.580;8.912;2024-02-21T13:53:08;12.80;98.70
32534;DHT22;18973;48.580;8.912;2024-02-21T13:55:34;12.90;97.50
32534;DHT22;18973;48.580;8.912;2024-02-21T13:58:00;13.00;97.60
32534;DHT22;18973;48.580;8.912;2024-02-21T14:00:26;13.00;98.50
32534;DHT22;18973;48.580;8.912;2024-02-21T14:02:52;13.00;97.80
32534;DHT22;18973;48.580;8.912;2024-02-21T14:05:20;13.00;98.50
32534;DHT22;18973;48.580;8.912;2024-02-21T14:07:45;13.00;97.40
32534;DHT22;18973;48.580;8.912;2024-02-21T14:10:11;13.00;98.80
32534;DHT22;18973;48.580;8.912;2024-02-21T14:12:37;12.90;97.60
32534;DHT22;18973;48.580;8.912;2024-02-21T14:15:04;13.00;98.10
32534;DHT22;18973;48.580;8.912;2024-02-21T14:17:30;12.90;98.40
32534;DHT22;18973;48.580;8.912;2024-02-21T14:19:56;12.90;98.20
32534;DHT22;18973;48.580;8.912;2024-02-21T14:22:22;12.80;98.40
32534;DHT22;18973;48.580;8.912;2024-02-21T14:24:47;12.90;98.50
32534;DHT22;18973;48.580;8.912;2024-02-21T14:27:13;12.90;98.70
32534;DHT22;18973;48.580;8.912;2024-02-21T14:29:39;12.90;99.30
32534;DHT22;18973;48.580;8.912;2024-02-21T14:32:04;12.90;98.80
32534;DHT22;18973;48.580;8.912;2024-02-21T14:34:31;13.00;99.20
32534;DHT22;18973;48.580;8.912;2024-02-21T14:36:57;12.90;98.50
32534;DHT22;18973;48.580;8.912;2024-02-21T14:39:22;12.90;98.60
32534;DHT22;18973;48.580;8.912;2024-02-21T14:41:48;13.00;98.60
32534;DHT22;18973;48.580;8.912;2024-02-21T14:44:14;13.00;98.30
32534;DHT22;18973;48.580;8.912;2024-02-21T14:46:39;13.00;98.10
32534;DHT22;18973;48.580;8.912;2024-02-21T14:49:05;13.00;98.40
32534;DHT22;18973;48.580;8.912;2024-02-21T14:51:31;12.90;98.60
32534;DHT22;18973;48.580;8.912;2024-02-21T14:53:57;13.00;98.30
32534;DHT22;18973;48.580;8.912;2024-02-21T14:56:23;12.80;98.40
32534;DHT22;18973;48.580;8.912;2024-02-21T14:58:49;12.90;99.30
32534;DHT22;18973;48.580;8.912;2024-02-21T15:01:15;12.80;99.00
32534;DHT22;18973;48.580;8.912;2024-02-21T15:03:41;12.80;99.10
32534;DHT22;18973;48.580;8.912;2024-02-21T15:06:08;12.80;99.90
32534;DHT22;18973;48.580;8.912;2024-02-21T15:08:34;12.70;99.80
32534;DHT22;18973;48.580;8.912;2024-02-21T15:10:59;12.70;99.80
32534;DHT22;18973;48.580;8.912;2024-02-21T15:13:25;12.80;99.90
32534;DHT22;18973;48.580;8.912;2024-02-21T15:15:52;12.90;99.90
32534;DHT22;18973;48.580;8.912;2024-02-21T15:18:18;13.20;99.90
32534;DHT22;18973;48.580;8.912;2024-02-21T15:20:44;13.90;99.90
32534;DHT22;18973;48.580;8.912;2024-02-21T15:23:10;13.70;99.70
32534;DHT22;18973;48.580;8.912;2024-02-21T15:25:36;13.60;99.30
32534;DHT22;18973;48.580;8.912;2024-02-21T15:28:03;13.30;98.90
32534;DHT22;18973;48.580;8.912;2024-02-21T15:30:32;13.20;99.20
32534;DHT22;18973;48.580;8.912;2024-02-21T15:32:58;13.00;99.20
32534;DHT22;18973;48.580;8.912;2024-02-21T15:35:28;12.90;99.90
32534;DHT22;18973;48.580;8.912;2024-02-21T15:37:54;12.90;99.90
32534;DHT22;18973;48.580;8.912;2024-02-21T15:40:22;12.80;99.90